Time;durP1;ratioP1;P1;durP2;ratioP2;P2;SDS_P1;SDS_P2;PMS_P1;PMS_P2;Temp;Humidity;BMP_temperature;BMP_pressure;BME280_temperature;BME280_humidity;BME280_pressure;Samples;Min_cycle;Max_cycle;Signal;HPM_P1;HPM_P2
2023/04/27 00:00:05;;;;;;;7.40;5.40;;;;;;;;;;5055453;28;20907;-76
2023/04/27 00:02:36;;;;;;;5.40;4.83;;;;;;;;;;5054805;28;20495;-76
2023/04/27 00:05:07;;;;;;;5.57;4.70;;;;;;;;;;5055664;28;20540;-77
2023/04/27 00:07:34;;;;;;;5.90;5.30;;;;;;;;;;5054369;28;20930;-78
2023/04/27 00:10:02;;;;;;;7.30;5.13;;;;;;;;;;5054996;28;20504;-77
2023/04/27 00:12:32;;;;;;;5.70;5.17;;;;;;;;;;5054397;28;20457;-77
2023/04/27 00:15:17;;;;;;;5.00;4.53;;;;;;;;;;5056413;28;20430;-77
2023/04/27 00:17:48;;;;;;;5.30;4.73;;;;;;;;;;5055157;28;20453;-76
2023/04/27 00:20:20;;;;;;;6.80;5.30;;;;;;;;;;5055346;28;20450;-76
2023/04/27 00:22:59;;;;;;;5.67;5.00;;;;;;;;;;5053065;28;20876;-76
2023/04/27 00:25:31;;;;;;;5.40;4.70;;;;;;;;;;5052304;28;21031;-76
2023/04/27 00:30:53;;;;;;;7.57;5.77;;;;;;;;;;5051836;28;20507;-78
2023/04/27 00:33:20;;;;;;;5.43;4.93;;;;;;;;;;5053279;28;20442;-78
2023/04/27 00:36:03;;;;;;;6.20;5.60;;;;;;;;;;5053316;28;20464;-76
2023/04/27 00:38:31;;;;;;;8.00;5.30;;;;;;;;;;5052254;28;20477;-76
2023/04/27 00:41:04;;;;;;;6.80;5.50;;;;;;;;;;5052507;28;20846;-77
2023/04/27 00:43:32;;;;;;;5.57;4.90;;;;;;;;;;5052583;28;20891;-76
2023/04/27 00:46:06;;;;;;;5.93;5.20;;;;;;;;;;5053246;28;20918;-78
2023/04/27 00:48:34;;;;;;;7.17;5.00;;;;;;;;;;5053469;28;20469;-78
2023/04/27 00:51:09;;;;;;;7.33;5.30;;;;;;;;;;5053677;28;20470;-76
2023/04/27 00:53:41;;;;;;;6.83;5.50;;;;;;;;;;5052423;28;20460;-75
2023/04/27 00:56:13;;;;;;;7.23;5.63;;;;;;;;;;5052127;28;20532;-78
2023/04/27 00:58:41;;;;;;;5.97;5.00;;;;;;;;;;5051852;28;20469;-76
2023/04/27 01:01:27;;;;;;;7.50;5.67;;;;;;;;;;5057103;28;20859;-77
2023/04/27 01:04:01;;;;;;;6.37;5.80;;;;;;;;;;5056967;28;20457;-77
2023/04/27 01:06:32;;;;;;;8.20;5.53;;;;;;;;;;5057434;28;20481;-77
2023/04/27 01:09:10;;;;;;;8.07;6.27;;;;;;;;;;5057451;28;20509;-78
2023/04/27 01:11:40;;;;;;;7.20;6.23;;;;;;;;;;5057225;28;20576;-77
2023/04/27 01:14:08;;;;;;;6.80;6.20;;;;;;;;;;5056364;28;20515;-78
2023/04/27 01:16:37;;;;;;;6.77;6.20;;;;;;;;;;5056143;28;20479;-77
2023/04/27 01:19:06;;;;;;;7.90;6.70;;;;;;;;;;5056583;28;20969;-77
2023/04/27 01:21:38;;;;;;;10.83;9.73;;;;;;;;;;5055670;28;20851;-76
2023/04/27 01:24:08;;;;;;;12.40;9.53;;;;;;;;;;5056299;28;20453;-78
2023/04/27 01:26:37;;;;;;;7.67;6.90;;;;;;;;;;5056863;28;20509;-78
2023/04/27 01:31:55;;;;;;;6.93;6.27;;;;;;;;;;5055055;28;20445;-77
2023/04/27 01:34:34;;;;;;;9.10;6.37;;;;;;;;;;5056952;28;20445;-75
2023/04/27 01:37:08;;;;;;;8.73;6.40;;;;;;;;;;5056977;28;20443;-76
2023/04/27 01:39:47;;;;;;;7.03;6.40;;;;;;;;;;5056382;28;20492;-76
2023/04/27 01:42:16;;;;;;;8.00;7.30;;;;;;;;;;5056518;28;20477;-76
2023/04/27 01:44:44;;;;;;;9.10;7.37;;;;;;;;;;5056201;28;20472;-77
2023/04/27 01:47:15;;;;;;;7.97;7.20;;;;;;;;;;5057515;28;20513;-77
2023/04/27 01:49:50;;;;;;;7.27;6.53;;;;;;;;;;5058950;28;20473;-77
2023/04/27 01:52:23;;;;;;;8.50;7.53;;;;;;;;;;5057578;28;20463;-76
2023/04/27 01:54:55;;;;;;;7.90;7.10;;;;;;;;;;5056769;28;20893;-76
2023/04/27 02:34:01;;;;;;;9.10;8.00;;;;;;;;;;5019294;28;20484;-77
2023/04/27 02:36:37;;;;;;;7.47;6.60;;;;;;;;;;5017718;28;20447;-77
2023/04/27 02:45:40;;;;;;;8.57;6.97;;;;;;;;;;4806819;29;20825;-76
2023/04/27 02:48:19;;;;;;;7.73;7.03;;;;;;;;;;4897710;29;20537;-76
2023/04/27 02:50:55;;;;;;;8.40;7.60;;;;;;;;;;5012530;28;20459;-78
2023/04/27 02:53:35;;;;;;;7.63;6.73;;;;;;;;;;5023890;28;20466;-77
2023/04/27 02:56:05;;;;;;;9.70;7.50;;;;;;;;;;5022624;28;20458;-77
2023/04/27 02:58:53;;;;;;;7.67;6.87;;;;;;;;;;5021511;28;20483;-76
2023/04/27 03:01:45;;;;;;;8.07;7.37;;;;;;;;;;5021481;28;20451;-77
2023/04/27 03:04:17;;;;;;;8.00;7.17;;;;;;;;;;5020919;28;20538;-76
2023/04/27 03:06:48;;;;;;;7.77;7.10;;;;;;;;;;5019958;28;20478;-75
2023/04/27 03:09:19;;;;;;;7.77;7.00;;;;;;;;;;5018389;28;20466;-76
2023/04/27 03:11:51;;;;;;;8.07;7.30;;;;;;;;;;5020277;28;20625;-76
2023/04/27 03:14:28;;;;;;;7.63;6.70;;;;;;;;;;5024885;28;20471;-76
2023/04/27 03:17:01;;;;;;;7.90;7.20;;;;;;;;;;5024575;28;20439;-78
2023/04/27 03:19:35;;;;;;;8.00;7.20;;;;;;;;;;5023669;28;20459;-78
2023/04/27 03:25:16;;;;;;;7.10;6.60;;;;;;;;;;5010218;28;20428;-77
2023/04/27 03:27:54;;;;;;;8.30;7.20;;;;;;;;;;5023328;28;20860;-76
2023/04/27 03:30:33;;;;;;;8.67;6.77;;;;;;;;;;5025201;28;20475;-77
2023/04/27 03:33:04;;;;;;;8.80;7.87;;;;;;;;;;5029036;28;20441;-78
2023/04/27 03:35:32;;;;;;;9.90;8.07;;;;;;;;;;5029603;28;20459;-78
2023/04/27 03:38:02;;;;;;;8.10;7.40;;;;;;;;;;5031425;28;20502;-77
2023/04/27 03:40:36;;;;;;;9.33;8.33;;;;;;;;;;5031218;28;20531;-79
2023/04/27 03:43:05;;;;;;;9.33;7.83;;;;;;;;;;5032132;28;20424;-78
2023/04/27 03:45:34;;;;;;;8.73;7.70;;;;;;;;;;5032162;28;20463;-77
2023/04/27 03:48:02;;;;;;;8.97;8.10;;;;;;;;;;5032410;28;20475;-78
2023/04/27 03:50:38;;;;;;;8.53;7.70;;;;;;;;;;5031500;28;20439;-79
2023/04/27 03:53:21;;;;;;;12.70;7.97;;;;;;;;;;5033200;28;20439;-77
2023/04/27 03:56:07;;;;;;;9.33;7.70;;;;;;;;;;5032192;28;20439;-78
2023/04/27 03:58:42;;;;;;;9.20;8.27;;;;;;;;;;5032166;28;20474;-77
2023/04/27 04:01:10;;;;;;;8.93;7.93;;;;;;;;;;5031106;28;20454;-78
2023/04/27 04:03:46;;;;;;;9.43;8.50;;;;;;;;;;5032618;28;20424;-77
2023/04/27 04:06:15;;;;;;;9.37;8.47;;;;;;;;;;5032691;28;20481;-77
2023/04/27 04:08:43;;;;;;;8.50;7.70;;;;;;;;;;5022569;28;20550;-76
2023/04/27 04:11:18;;;;;;;10.00;8.83;;;;;;;;;;5017686;28;20474;-77
2023/04/27 04:13:47;;;;;;;9.67;8.87;;;;;;;;;;5016781;28;20505;-77
2023/04/27 04:16:17;;;;;;;9.07;7.87;;;;;;;;;;5016304;28;20634;-77
2023/04/27 04:18:48;;;;;;;9.77;8.87;;;;;;;;;;5016859;28;20463;-76
2023/04/27 04:21:22;;;;;;;13.33;9.00;;;;;;;;;;5017297;28;20459;-76
2023/04/27 04:23:51;;;;;;;9.17;8.23;;;;;;;;;;5018264;28;20884;-77
2023/04/27 04:26:22;;;;;;;11.33;8.40;;;;;;;;;;5016381;28;20475;-77
2023/04/27 04:28:52;;;;;;;9.00;8.10;;;;;;;;;;5016275;28;20502;-76
2023/04/27 04:31:28;;;;;;;9.70;8.03;;;;;;;;;;5017528;28;20454;-77
2023/04/27 04:34:03;;;;;;;11.93;8.47;;;;;;;;;;5012286;28;20451;-77
2023/04/27 04:36:35;;;;;;;17.03;10.20;;;;;;;;;;5014748;28;20881;-77
2023/04/27 04:39:02;;;;;;;10.30;9.23;;;;;;;;;;5012704;28;20475;-77
2023/04/27 04:41:30;;;;;;;9.63;8.13;;;;;;;;;;5011805;28;20873;-79
2023/04/27 04:43:59;;;;;;;9.43;8.53;;;;;;;;;;5012560;28;20451;-78
2023/04/27 04:46:31;;;;;;;10.40;9.40;;;;;;;;;;5012364;28;20478;-78
2023/04/27 04:48:58;;;;;;;10.67;9.67;;;;;;;;;;5013337;28;20521;-77
2023/04/27 04:51:26;;;;;;;11.83;9.87;;;;;;;;;;5014230;28;20444;-77
2023/04/27 04:53:58;;;;;;;10.90;9.83;;;;;;;;;;5013585;28;20461;-78
2023/04/27 04:56:31;;;;;;;11.50;10.30;;;;;;;;;;5014242;28;20489;-77
2023/04/27 04:59:02;;;;;;;13.17;10.63;;;;;;;;;;5014686;28;20475;-78
2023/04/27 05:01:30;;;;;;;10.20;8.93;;;;;;;;;;5014347;28;20451;-77
2023/04/27 05:03:57;;;;;;;10.23;9.43;;;;;;;;;;5018515;28;20501;-76
2023/04/27 05:06:25;;;;;;;12.00;10.03;;;;;;;;;;5020563;28;20475;-77
2023/04/27 05:08:52;;;;;;;10.63;9.70;;;;;;;;;;5020016;28;20467;-77
2023/04/27 05:11:25;;;;;;;11.03;9.90;;;;;;;;;;5021000;28;20452;-77
2023/04/27 05:13:52;;;;;;;12.47;10.77;;;;;;;;;;5020575;28;20447;-78
2023/04/27 05:16:21;;;;;;;12.83;9.47;;;;;;;;;;5021752;28;20978;-76
2023/04/27 05:18:49;;;;;;;12.67;10.00;;;;;;;;;;5019845;28;20521;-75
2023/04/27 05:21:19;;;;;;;10.90;9.80;;;;;;;;;;5018855;28;20435;-77
2023/04/27 05:23:46;;;;;;;12.17;9.80;;;;;;;;;;5016301;28;20455;-76
2023/04/27 05:26:14;;;;;;;11.20;10.03;;;;;;;;;;5013309;28;20477;-77
2023/04/27 05:28:42;;;;;;;11.60;10.50;;;;;;;;;;5012474;28;21033;-77
2023/04/27 05:31:10;;;;;;;12.97;10.40;;;;;;;;;;5013992;28;20955;-78
2023/04/27 05:33:42;;;;;;;11.80;10.70;;;;;;;;;;5015856;28;20451;-77
2023/04/27 05:36:10;;;;;;;12.87;11.60;;;;;;;;;;5015605;28;20530;-76
2023/04/27 05:41:35;;;;;;;12.20;11.07;;;;;;;;;;5031231;28;20529;-76
2023/04/27 05:44:03;;;;;;;17.77;10.97;;;;;;;;;;5031646;28;20454;-77
2023/04/27 05:46:31;;;;;;;12.97;11.53;;;;;;;;;;5041362;28;20481;-76
2023/04/27 05:49:02;;;;;;;11.53;10.43;;;;;;;;;;5044619;28;20853;-77
2023/04/27 05:51:37;;;;;;;11.37;10.23;;;;;;;;;;5045972;28;20474;-76
2023/04/27 05:54:10;;;;;;;11.40;10.27;;;;;;;;;;5046619;28;20454;-77
2023/04/27 05:56:37;;;;;;;12.13;10.93;;;;;;;;;;5038966;28;20431;-76
2023/04/27 05:59:09;;;;;;;11.50;10.40;;;;;;;;;;5037238;28;20481;-77
2023/04/27 06:01:38;;;;;;;12.07;10.87;;;;;;;;;;5038647;28;20456;-76
2023/04/27 06:04:08;;;;;;;12.67;10.33;;;;;;;;;;5036577;28;20501;-78
2023/04/27 06:06:37;;;;;;;11.87;10.63;;;;;;;;;;5037041;28;20474;-77
2023/04/27 06:09:07;;;;;;;11.87;10.73;;;;;;;;;;5035620;28;20485;-76
2023/04/27 06:11:38;;;;;;;11.53;10.60;;;;;;;;;;5037551;28;20510;-77
2023/04/27 06:14:13;;;;;;;12.80;9.70;;;;;;;;;;5037103;28;21020;-76
2023/04/27 06:16:41;;;;;;;11.33;9.77;;;;;;;;;;5036344;28;20504;-77
2023/04/27 06:19:10;;;;;;;11.53;10.30;;;;;;;;;;5047462;28;20484;-77
2023/04/27 06:21:42;;;;;;;12.90;9.80;;;;;;;;;;5054051;28;20491;-75
2023/04/27 06:24:14;;;;;;;12.67;10.30;;;;;;;;;;5054592;28;20433;-77
2023/04/27 06:26:42;;;;;;;16.97;10.67;;;;;;;;;;5054436;28;20507;-77
2023/04/27 06:29:11;;;;;;;10.90;9.50;;;;;;;;;;5054497;28;20461;-77
2023/04/27 06:31:40;;;;;;;11.60;10.50;;;;;;;;;;5055819;28;20583;-76
2023/04/27 06:34:07;;;;;;;11.13;10.03;;;;;;;;;;5054708;28;20541;-76
2023/04/27 06:36:40;;;;;;;12.80;10.10;;;;;;;;;;5057273;28;20481;-76
2023/04/27 06:39:08;;;;;;;12.23;11.03;;;;;;;;;;5056988;28;20450;-76
2023/04/27 06:41:35;;;;;;;14.47;10.43;;;;;;;;;;5056363;28;20454;-78
2023/04/27 06:44:02;;;;;;;13.53;10.03;;;;;;;;;;5055602;28;20454;-75
2023/04/27 06:46:30;;;;;;;13.43;9.83;;;;;;;;;;5056319;28;20517;-78
2023/04/27 06:48:58;;;;;;;11.20;10.10;;;;;;;;;;5056226;28;20469;-76
2023/04/27 06:51:29;;;;;;;12.07;10.77;;;;;;;;;;5055839;28;20445;-77
2023/04/27 06:53:58;;;;;;;12.10;10.80;;;;;;;;;;5054340;28;20457;-77
2023/04/27 06:56:26;;;;;;;13.57;9.50;;;;;;;;;;5053944;28;20479;-77
2023/04/27 06:58:54;;;;;;;10.50;9.50;;;;;;;;;;5055290;28;20465;-77
2023/04/27 07:01:24;;;;;;;10.73;9.63;;;;;;;;;;5059267;28;20484;-75
2023/04/27 07:03:56;;;;;;;12.20;10.90;;;;;;;;;;5059176;28;20462;-75
2023/04/27 07:06:24;;;;;;;12.43;10.80;;;;;;;;;;5060945;28;20710;-76
2023/04/27 07:08:55;;;;;;;10.77;9.63;;;;;;;;;;5059868;28;20481;-77
2023/04/27 07:11:29;;;;;;;11.50;10.30;;;;;;;;;;5058348;28;20489;-76
2023/04/27 07:14:01;;;;;;;11.57;10.57;;;;;;;;;;5058240;28;20446;-77
2023/04/27 07:16:31;;;;;;;11.03;9.93;;;;;;;;;;5058958;28;20515;-76
2023/04/27 07:19:01;;;;;;;10.73;9.63;;;;;;;;;;5058748;28;20527;-77
2023/04/27 07:21:39;;;;;;;14.07;10.10;;;;;;;;;;5060413;28;20454;-77
2023/04/27 07:24:07;;;;;;;11.50;10.30;;;;;;;;;;5054803;28;20454;-76
2023/04/27 07:26:38;;;;;;;11.33;10.33;;;;;;;;;;5055034;28;20458;-77
2023/04/27 07:29:08;;;;;;;12.03;10.37;;;;;;;;;;5054769;28;20464;-76
2023/04/27 07:31:39;;;;;;;16.13;11.47;;;;;;;;;;5055912;28;20914;-76
2023/04/27 07:34:10;;;;;;;13.23;10.13;;;;;;;;;;5036870;28;20449;-77
2023/04/27 07:36:38;;;;;;;12.57;9.97;;;;;;;;;;5057188;28;20453;-78
2023/04/27 07:39:09;;;;;;;12.37;9.30;;;;;;;;;;5057602;28;21021;-78
2023/04/27 07:41:39;;;;;;;13.10;9.90;;;;;;;;;;5055938;28;20496;-78
2023/04/27 07:44:08;;;;;;;10.40;8.80;;;;;;;;;;5057942;28;20449;-77
2023/04/27 07:46:37;;;;;;;10.47;9.47;;;;;;;;;;5057853;28;20472;-77
2023/04/27 07:49:05;;;;;;;9.53;8.40;;;;;;;;;;5056584;28;20485;-76
2023/04/27 07:51:33;;;;;;;12.23;8.83;;;;;;;;;;5058519;28;20454;-76
2023/04/27 07:54:08;;;;;;;10.57;9.13;;;;;;;;;;5058651;28;20438;-76
2023/04/27 07:56:39;;;;;;;9.80;8.90;;;;;;;;;;5058718;28;20429;-77
2023/04/27 07:59:14;;;;;;;10.30;9.07;;;;;;;;;;5062579;28;20472;-76
2023/04/27 08:01:44;;;;;;;11.63;8.63;;;;;;;;;;5060018;28;20453;-76
2023/04/27 08:04:12;;;;;;;11.43;8.47;;;;;;;;;;5059803;28;20477;-76
2023/04/27 08:06:40;;;;;;;13.20;9.23;;;;;;;;;;5057924;28;20453;-77
2023/04/27 08:09:08;;;;;;;13.53;7.93;;;;;;;;;;5060573;28;20616;-77
2023/04/27 08:11:38;;;;;;;9.10;8.40;;;;;;;;;;5064310;28;20552;-76
2023/04/27 08:14:12;;;;;;;9.73;8.60;;;;;;;;;;5064713;28;20472;-77
2023/04/27 08:16:42;;;;;;;8.17;7.30;;;;;;;;;;5064685;28;20481;-77
2023/04/27 08:21:49;;;;;;;9.00;7.97;;;;;;;;;;5044123;28;20500;-79
2023/04/27 08:24:17;;;;;;;8.50;7.70;;;;;;;;;;5047784;28;20473;-78
2023/04/27 08:26:50;;;;;;;8.53;7.73;;;;;;;;;;5047156;28;20859;-77
2023/04/27 08:29:26;;;;;;;8.07;7.37;;;;;;;;;;5049204;28;20497;-78
2023/04/27 08:32:00;;;;;;;8.03;7.30;;;;;;;;;;5048912;28;20476;-78
2023/04/27 08:34:35;;;;;;;9.60;7.50;;;;;;;;;;5045196;28;20447;-77
2023/04/27 08:37:03;;;;;;;9.30;6.90;;;;;;;;;;5042192;28;20449;-77
2023/04/27 08:39:32;;;;;;;7.00;6.30;;;;;;;;;;5045774;28;20502;-77
2023/04/27 08:42:02;;;;;;;9.03;6.43;;;;;;;;;;5047157;28;20455;-78
2023/04/27 08:44:34;;;;;;;8.07;7.33;;;;;;;;;;5046954;28;20548;-77
2023/04/27 08:47:04;;;;;;;7.50;6.80;;;;;;;;;;5038219;28;20485;-76
2023/04/27 08:49:32;;;;;;;6.57;5.97;;;;;;;;;;5041067;28;20474;-76
2023/04/27 08:51:59;;;;;;;6.93;6.33;;;;;;;;;;5041468;28;20481;-76
2023/04/27 08:54:27;;;;;;;7.30;6.47;;;;;;;;;;5042150;28;20477;-76
2023/04/27 08:56:54;;;;;;;8.40;6.20;;;;;;;;;;5041536;28;20454;-77
2023/04/27 08:59:24;;;;;;;7.07;6.40;;;;;;;;;;5041888;28;20443;-77
2023/04/27 09:01:53;;;;;;;6.10;5.60;;;;;;;;;;5043171;28;20466;-76
2023/04/27 09:04:23;;;;;;;6.67;6.07;;;;;;;;;;5041608;28;20435;-77
2023/04/27 09:06:53;;;;;;;7.83;6.63;;;;;;;;;;5041823;28;20447;-76
2023/04/27 09:09:28;;;;;;;6.50;5.63;;;;;;;;;;5044115;28;20529;-77
2023/04/27 09:12:06;;;;;;;7.47;6.70;;;;;;;;;;5014245;28;20548;-75
2023/04/27 09:14:39;;;;;;;6.70;6.10;;;;;;;;;;5015600;28;20469;-76
2023/04/27 09:17:29;;;;;;;6.37;5.77;;;;;;;;;;5016460;28;20493;-76
2023/04/27 09:20:12;;;;;;;7.20;6.50;;;;;;;;;;5016411;28;20481;-77
2023/04/27 09:22:48;;;;;;;9.23;5.73;;;;;;;;;;5021442;28;20439;-76
2023/04/27 09:28:23;;;;;;;6.77;6.00;;;;;;;;;;5017117;28;20549;-77
2023/04/27 09:31:00;;;;;;;7.90;6.00;;;;;;;;;;5017230;28;20427;-76
2023/04/27 09:33:35;;;;;;;7.60;5.40;;;;;;;;;;4998024;28;20432;-77
2023/04/27 09:36:11;;;;;;;9.43;5.90;;;;;;;;;;5004529;28;20468;-74
2023/04/27 09:38:51;;;;;;;7.03;6.37;;;;;;;;;;5004033;28;20479;-77
2023/04/27 09:41:31;;;;;;;7.87;5.77;;;;;;;;;;5006832;28;20480;-75
2023/04/27 09:44:03;;;;;;;8.00;6.67;;;;;;;;;;5005439;28;20487;-75
2023/04/27 09:46:34;;;;;;;6.83;6.00;;;;;;;;;;5003425;28;20429;-75
2023/04/27 09:49:17;;;;;;;9.90;6.50;;;;;;;;;;5009591;28;20555;-75
2023/04/27 09:51:55;;;;;;;5.67;5.17;;;;;;;;;;5010466;28;20458;-77
2023/04/27 09:54:26;;;;;;;9.97;5.67;;;;;;;;;;5009556;28;20458;-76
2023/04/27 09:57:01;;;;;;;7.10;5.70;;;;;;;;;;5012310;28;20432;-77
2023/04/27 09:59:39;;;;;;;6.97;5.70;;;;;;;;;;5013624;28;20455;-76
2023/04/27 10:02:08;;;;;;;6.60;5.57;;;;;;;;;;5016521;28;20452;-77
2023/04/27 10:04:44;;;;;;;5.17;4.87;;;;;;;;;;5019027;28;20419;-78
2023/04/27 10:07:13;;;;;;;6.23;5.53;;;;;;;;;;5011962;28;20768;-76
2023/04/27 10:09:45;;;;;;;8.23;5.70;;;;;;;;;;4998853;28;20476;-76
2023/04/27 10:12:17;;;;;;;6.70;5.83;;;;;;;;;;4997151;28;20459;-76
2023/04/27 10:14:54;;;;;;;7.10;6.43;;;;;;;;;;4997042;28;20500;-75
2023/04/27 10:17:32;;;;;;;6.73;6.03;;;;;;;;;;4998722;28;20487;-76
2023/04/27 10:20:07;;;;;;;5.90;5.30;;;;;;;;;;4997560;28;20550;-75
2023/04/27 10:22:39;;;;;;;7.33;6.27;;;;;;;;;;4996404;28;20459;-76
2023/04/27 10:25:27;;;;;;;7.23;6.63;;;;;;;;;;4996343;28;20510;-75
2023/04/27 10:27:57;;;;;;;7.30;6.60;;;;;;;;;;4996323;28;20507;-76
2023/04/27 10:30:26;;;;;;;7.40;6.70;;;;;;;;;;4998129;28;20960;-75
2023/04/27 10:32:58;;;;;;;8.47;6.70;;;;;;;;;;4997044;28;20460;-75
2023/04/27 10:35:46;;;;;;;7.10;6.03;;;;;;;;;;4997915;28;20514;-75
2023/04/27 10:38:20;;;;;;;8.13;6.60;;;;;;;;;;4998015;28;20575;-74
2023/04/27 10:41:00;;;;;;;8.13;5.80;;;;;;;;;;4997583;28;20547;-76
2023/04/27 10:43:31;;;;;;;6.27;5.73;;;;;;;;;;4997181;28;20433;-75
2023/04/27 10:46:17;;;;;;;7.63;5.80;;;;;;;;;;4996826;28;20464;-75
2023/04/27 10:48:48;;;;;;;6.40;5.57;;;;;;;;;;4995293;28;20472;-75
2023/04/27 10:51:18;;;;;;;6.00;5.40;;;;;;;;;;4994792;28;20456;-75
2023/04/27 10:53:46;;;;;;;6.67;5.90;;;;;;;;;;4995086;28;20436;-76
2023/04/27 10:56:29;;;;;;;6.63;5.80;;;;;;;;;;4994419;28;20535;-76
2023/04/27 10:59:07;;;;;;;6.90;6.30;;;;;;;;;;4995404;28;20682;-75
2023/04/27 11:01:37;;;;;;;6.90;6.30;;;;;;;;;;4998471;28;20543;-76
2023/04/27 11:06:49;;;;;;;5.77;5.27;;;;;;;;;;4999700;28;20449;-76
2023/04/27 11:09:29;;;;;;;6.77;5.77;;;;;;;;;;5000850;28;20482;-77
2023/04/27 11:11:57;;;;;;;7.57;6.13;;;;;;;;;;5000254;28;20456;-76
2023/04/27 11:14:31;;;;;;;8.73;6.20;;;;;;;;;;5000281;28;20462;-76
2023/04/27 11:17:03;;;;;;;7.60;6.30;;;;;;;;;;5000293;28;20448;-75
2023/04/27 11:19:31;;;;;;;7.00;6.03;;;;;;;;;;5017272;28;20443;-75
2023/04/27 11:22:07;;;;;;;5.90;5.33;;;;;;;;;;5019075;28;20466;-75
2023/04/27 11:24:35;;;;;;;6.67;5.63;;;;;;;;;;5020197;28;20525;-75
2023/04/27 11:27:07;;;;;;;7.47;5.90;;;;;;;;;;5020707;28;20442;-75
2023/04/27 11:29:39;;;;;;;10.40;5.90;;;;;;;;;;5017035;28;20471;-76
2023/04/27 11:32:06;;;;;;;8.10;6.10;;;;;;;;;;5017112;28;20465;-75
2023/04/27 11:34:41;;;;;;;6.20;5.60;;;;;;;;;;5016069;28;20439;-76
2023/04/27 11:37:23;;;;;;;7.83;6.50;;;;;;;;;;5017572;28;20482;-75
2023/04/27 11:39:52;;;;;;;5.77;5.20;;;;;;;;;;5017985;28;20804;-76
2023/04/27 11:42:24;;;;;;;7.70;5.80;;;;;;;;;;5016639;28;20470;-75
2023/04/27 11:44:58;;;;;;;6.43;5.93;;;;;;;;;;5016167;28;20448;-77
2023/04/27 11:47:28;;;;;;;6.17;5.67;;;;;;;;;;5015764;28;20515;-76
2023/04/27 11:49:58;;;;;;;6.07;5.47;;;;;;;;;;5014549;28;20558;-75
2023/04/27 11:52:30;;;;;;;5.73;5.33;;;;;;;;;;5015520;28;20459;-76
2023/04/27 11:55:07;;;;;;;6.20;5.57;;;;;;;;;;5014819;28;20447;-77
2023/04/27 11:57:38;;;;;;;5.90;5.47;;;;;;;;;;5016575;28;21038;-76
2023/04/27 12:00:09;;;;;;;5.50;5.10;;;;;;;;;;5015786;28;20431;-75
2023/04/27 12:02:43;;;;;;;5.93;4.93;;;;;;;;;;5016087;28;20505;-75
2023/04/27 12:05:18;;;;;;;7.50;5.83;;;;;;;;;;5016178;28;20459;-76
2023/04/27 12:07:53;;;;;;;14.87;13.37;;;;;;;;;;5014833;28;20481;-75
2023/04/27 12:10:28;;;;;;;8.60;6.57;;;;;;;;;;5013479;28;20565;-76
2023/04/27 12:12:59;;;;;;;7.13;6.43;;;;;;;;;;5013647;28;20595;-75
2023/04/27 12:15:40;;;;;;;5.60;5.10;;;;;;;;;;5014030;28;20486;-76
2023/04/27 12:18:11;;;;;;;6.23;5.73;;;;;;;;;;5013592;28;20550;-75
2023/04/27 12:20:38;;;;;;;6.67;5.90;;;;;;;;;;5014240;28;20842;-76
2023/04/27 12:23:13;;;;;;;8.43;6.80;;;;;;;;;;5013440;28;20790;-76
2023/04/27 12:25:49;;;;;;;6.53;5.90;;;;;;;;;;5014839;28;20451;-74
2023/04/27 12:28:19;;;;;;;6.43;5.27;;;;;;;;;;5016258;28;20551;-75
2023/04/27 12:30:48;;;;;;;6.70;5.33;;;;;;;;;;5015564;28;20459;-76
2023/04/27 12:33:20;;;;;;;6.73;6.20;;;;;;;;;;5015858;28;20455;-75
2023/04/27 12:35:49;;;;;;;8.07;6.17;;;;;;;;;;5014621;28;20456;-76
2023/04/27 12:38:19;;;;;;;9.27;6.43;;;;;;;;;;5012536;28;20502;-77
2023/04/27 12:40:47;;;;;;;7.17;6.63;;;;;;;;;;5013137;28;20432;-76
2023/04/27 12:43:17;;;;;;;6.97;6.37;;;;;;;;;;5012021;28;20451;-76
2023/04/27 12:45:55;;;;;;;8.00;6.23;;;;;;;;;;5012685;28;20462;-77
2023/04/27 12:48:23;;;;;;;5.63;5.13;;;;;;;;;;5012646;28;20490;-76
2023/04/27 12:51:00;;;;;;;5.87;5.40;;;;;;;;;;5013174;28;20459;-76
2023/04/27 12:53:32;;;;;;;5.93;5.40;;;;;;;;;;5014001;28;21007;-75
2023/04/27 12:56:03;;;;;;;5.70;5.20;;;;;;;;;;5014253;28;20462;-76
2023/04/27 12:58:47;;;;;;;;;;;;;;;;;;;;;
2023/04/27 13:01:25;;;;;;;5.63;5.20;;;;;;;;;;5013983;28;20531;-75
2023/04/27 13:04:02;;;;;;;7.73;6.33;;;;;;;;;;5015559;28;20798;-77
2023/04/27 13:06:32;;;;;;;7.57;5.77;;;;;;;;;;5015303;28;20459;-76
2023/04/27 13:09:20;;;;;;;7.73;6.07;;;;;;;;;;5014378;28;20575;-76
2023/04/27 13:11:53;;;;;;;5.10;4.60;;;;;;;;;;5012820;28;20546;-76
2023/04/27 13:14:29;;;;;;;5.17;4.40;;;;;;;;;;5014351;28;21001;-77
2023/04/27 13:17:09;;;;;;;9.50;6.80;;;;;;;;;;5016858;28;20427;-76
2023/04/27 13:19:45;;;;;;;10.33;6.20;;;;;;;;;;5018924;28;20530;-76
2023/04/27 13:22:19;;;;;;;17.70;16.10;;;;;;;;;;5018849;28;20501;-75
2023/04/27 13:24:53;;;;;;;5.80;5.30;;;;;;;;;;5017306;28;20474;-74
2023/04/27 13:27:27;;;;;;;7.93;5.57;;;;;;;;;;5015207;28;20533;-75
2023/04/27 13:29:57;;;;;;;5.73;5.33;;;;;;;;;;5016213;28;20479;-75
2023/04/27 13:32:24;;;;;;;7.80;7.10;;;;;;;;;;5021365;28;20531;-75
2023/04/27 13:35:04;;;;;;;8.00;6.03;;;;;;;;;;5019582;28;20467;-75
2023/04/27 13:37:32;;;;;;;6.80;6.20;;;;;;;;;;5023415;28;20472;-75
2023/04/27 13:40:03;;;;;;;6.90;6.30;;;;;;;;;;5023403;28;20527;-75
2023/04/27 13:42:32;;;;;;;7.77;6.10;;;;;;;;;;5023828;28;20810;-74
2023/04/27 13:45:01;;;;;;;5.93;5.43;;;;;;;;;;5024364;28;20500;-75
2023/04/27 13:47:35;;;;;;;7.23;5.43;;;;;;;;;;5014213;28;20498;-75
2023/04/27 13:50:06;;;;;;;5.97;5.43;;;;;;;;;;5013800;28;20479;-75
2023/04/27 13:52:35;;;;;;;6.80;5.30;;;;;;;;;;5013461;28;20478;-75
2023/04/27 13:55:14;;;;;;;5.93;5.40;;;;;;;;;;5013882;28;20470;-76
2023/04/27 13:57:47;;;;;;;12.20;9.37;;;;;;;;;;5014958;28;20475;-75
2023/04/27 14:00:16;;;;;;;6.30;4.93;;;;;;;;;;4996261;28;20447;-75
2023/04/27 14:02:45;;;;;;;5.50;5.00;;;;;;;;;;5013817;28;20476;-75
2023/04/27 14:05:15;;;;;;;5.67;5.27;;;;;;;;;;5015192;28;20533;-75
2023/04/27 14:07:49;;;;;;;5.80;5.30;;;;;;;;;;5016126;28;20482;-75
2023/04/27 14:10:22;;;;;;;6.37;5.67;;;;;;;;;;5019825;28;20539;-74
2023/04/27 14:12:58;;;;;;;5.40;4.90;;;;;;;;;;5020855;28;20823;-76
2023/04/27 14:15:27;;;;;;;5.23;4.83;;;;;;;;;;5020583;28;20458;-74
2023/04/27 14:17:56;;;;;;;5.57;4.77;;;;;;;;;;5024869;28;20462;-75
2023/04/27 14:20:37;;;;;;;5.40;4.63;;;;;;;;;;5023751;28;20883;-76
2023/04/27 14:23:07;;;;;;;6.90;5.03;;;;;;;;;;5025146;28;20462;-76
2023/04/27 14:25:37;;;;;;;5.27;4.60;;;;;;;;;;5026538;28;20447;-76
2023/04/27 14:28:08;;;;;;;7.10;4.43;;;;;;;;;;5023957;28;20571;-75
2023/04/27 14:30:36;;;;;;;5.00;4.60;;;;;;;;;;5020491;28;20475;-75
2023/04/27 14:33:08;;;;;;;6.43;4.40;;;;;;;;;;5020404;28;20481;-75
2023/04/27 14:35:36;;;;;;;6.10;4.87;;;;;;;;;;5020697;28;20455;-75
2023/04/27 14:38:08;;;;;;;4.87;4.37;;;;;;;;;;5018995;28;20499;-76
2023/04/27 14:40:38;;;;;;;6.77;4.00;;;;;;;;;;5021310;28;20514;-77
2023/04/27 14:43:06;;;;;;;5.20;4.57;;;;;;;;;;5025903;28;20455;-75
2023/04/27 14:45:35;;;;;;;4.63;4.03;;;;;;;;;;5025853;28;20990;-77
2023/04/27 14:48:03;;;;;;;4.50;4.20;;;;;;;;;;5025115;28;20472;-75
2023/04/27 14:50:33;;;;;;;4.83;4.33;;;;;;;;;;5019726;28;20482;-77
2023/04/27 14:53:01;;;;;;;6.50;4.47;;;;;;;;;;5018611;28;20865;-77
2023/04/27 14:55:33;;;;;;;7.67;5.20;;;;;;;;;;5017418;28;20530;-75
2023/04/27 14:58:05;;;;;;;6.10;4.80;;;;;;;;;;5023942;28;20535;-76
2023/04/27 15:00:37;;;;;;;6.07;4.70;;;;;;;;;;5025925;28;20467;-77
2023/04/27 15:03:07;;;;;;;6.17;5.10;;;;;;;;;;5024421;28;20455;-76
2023/04/27 15:05:36;;;;;;;6.20;5.37;;;;;;;;;;5023270;28;20516;-77
2023/04/27 15:08:04;;;;;;;5.30;4.90;;;;;;;;;;5021528;28;20484;-75
2023/04/27 15:10:32;;;;;;;6.30;5.00;;;;;;;;;;5020677;28;20487;-76
2023/04/27 15:13:00;;;;;;;6.97;4.37;;;;;;;;;;5020721;28;20451;-76
2023/04/27 15:15:29;;;;;;;6.00;4.80;;;;;;;;;;5021921;28;20505;-77
2023/04/27 15:17:57;;;;;;;5.00;4.40;;;;;;;;;;5020256;28;20991;-74
2023/04/27 15:20:27;;;;;;;5.43;4.70;;;;;;;;;;5022091;28;20899;-76
2023/04/27 15:22:55;;;;;;;7.20;5.20;;;;;;;;;;5023064;28;20454;-76
2023/04/27 15:25:23;;;;;;;5.20;4.70;;;;;;;;;;5021305;28;20452;-77
2023/04/27 15:27:53;;;;;;;8.93;5.17;;;;;;;;;;5020119;28;20471;-76
2023/04/27 15:30:22;;;;;;;6.13;5.30;;;;;;;;;;5017050;28;20486;-77
2023/04/27 15:33:00;;;;;;;8.40;4.93;;;;;;;;;;5016319;28;20539;-77
2023/04/27 15:35:32;;;;;;;6.00;5.40;;;;;;;;;;5016570;28;20474;-76
2023/04/27 15:38:00;;;;;;;6.37;4.67;;;;;;;;;;5016384;28;20475;-77
2023/04/27 15:40:29;;;;;;;4.37;3.97;;;;;;;;;;5015954;28;20475;-76
2023/04/27 15:42:57;;;;;;;4.80;4.40;;;;;;;;;;5014582;28;20447;-76
2023/04/27 15:45:26;;;;;;;5.37;4.27;;;;;;;;;;5017626;28;20538;-76
2023/04/27 15:47:56;;;;;;;5.33;4.33;;;;;;;;;;5015264;28;20472;-75
2023/04/27 15:50:33;;;;;;;8.80;4.93;;;;;;;;;;5015254;28;20598;-76
2023/04/27 15:53:02;;;;;;;6.80;4.70;;;;;;;;;;5015280;28;20553;-76
2023/04/27 15:55:30;;;;;;;6.77;4.83;;;;;;;;;;5017429;28;20451;-76
2023/04/27 15:57:58;;;;;;;6.40;5.10;;;;;;;;;;5020739;28;20482;-76
2023/04/27 16:00:26;;;;;;;5.10;4.70;;;;;;;;;;5026266;28;20479;-76
2023/04/27 16:02:55;;;;;;;5.30;4.70;;;;;;;;;;5019241;28;20534;-77
2023/04/27 16:05:25;;;;;;;5.20;4.67;;;;;;;;;;5017099;28;20456;-76
2023/04/27 16:07:56;;;;;;;6.63;4.73;;;;;;;;;;5015733;28;20514;-77